ANZ26 YPAD-NZWN
Flight info
| Callsign | ANZ26 |
|---|---|
| Flight time | N/A |
| Altitude | 35000 |
| Route | BENDO Y12 ARBEY H119 ML Y260 CORRS Y66 GIVID M625 GOPLU |
| Aircraft | A321/M-SDE3FGHIRWY/LB1 |
Departure
| Time | 2026-05-06 03:42 |
|---|---|
| Airport | Adelaide International Airport (YPAD) |
Arrival
| Time | N/A |
|---|---|
| Airport | Wellington International Airport (NZWN) |
| Time | Latitude | Longitude | Altitude | Speed | Heading |
|---|---|---|---|---|---|
| 2026-05-06 03:05 | -34.93934 | 138.53857 | 35 ft | 0 kts | 322° |
| 2026-05-06 03:34 | -34.93948 | 138.53869 | 35 ft | 4 kts | 324° |
| 2026-05-06 03:34 | -34.93970 | 138.53888 | 35 ft | 4 kts | 330° |
| 2026-05-06 03:34 | -34.93994 | 138.53902 | 35 ft | 4 kts | 349° |
| 2026-05-06 03:35 | -34.94016 | 138.53900 | 35 ft | 3 kts | 47° |
| 2026-05-06 03:35 | -34.94017 | 138.53898 | 35 ft | 1 kts | 50° |
| 2026-05-06 03:35 | -34.94018 | 138.53898 | 35 ft | 0 kts | 50° |
| 2026-05-06 03:36 | -34.94017 | 138.53898 | 35 ft | 0 kts | 50° |
| 2026-05-06 03:38 | -34.94000 | 138.53922 | 35 ft | 9 kts | 50° |
| 2026-05-06 03:39 | -34.93955 | 138.53988 | 35 ft | 11 kts | 50° |
| 2026-05-06 03:39 | -34.93915 | 138.54046 | 35 ft | 8 kts | 50° |
| 2026-05-06 03:39 | -34.93890 | 138.54102 | 35 ft | 8 kts | 89° |
| 2026-05-06 03:39 | -34.93914 | 138.54160 | 35 ft | 9 kts | 134° |
| 2026-05-06 03:40 | -34.93963 | 138.54213 | 35 ft | 9 kts | 139° |
| 2026-05-06 03:40 | -34.94010 | 138.54260 | 35 ft | 9 kts | 147° |
| 2026-05-06 03:40 | -34.94076 | 138.54279 | 35 ft | 11 kts | 185° |
| 2026-05-06 03:40 | -34.94114 | 138.54258 | 35 ft | 4 kts | 223° |
| 2026-05-06 03:41 | -34.94120 | 138.54250 | 35 ft | 0 kts | 226° |
| 2026-05-06 03:41 | -34.94122 | 138.54248 | 35 ft | 8 kts | 226° |
| 2026-05-06 03:41 | -34.94381 | 138.53872 | 35 ft | 104 kts | 231° |
| 2026-05-06 03:41 | -34.95002 | 138.52968 | 184 ft | 160 kts | 231° |
| 2026-05-06 03:42 | -34.95725 | 138.51955 | 1114 ft | 158 kts | 230° |
| 2026-05-06 03:42 | -34.96431 | 138.50991 | 2014 ft | 147 kts | 230° |
| 2026-05-06 03:42 | -34.97079 | 138.50049 | 2662 ft | 151 kts | 234° |
| 2026-05-06 03:42 | -34.97740 | 138.48957 | 3067 ft | 169 kts | 233° |
| 2026-05-06 03:43 | -34.98516 | 138.47773 | 3459 ft | 190 kts | 231° |
| 2026-05-06 03:43 | -34.99425 | 138.46470 | 3899 ft | 212 kts | 230° |
| 2026-05-06 03:43 | -35.00427 | 138.45044 | 4475 ft | 230 kts | 230° |
| 2026-05-06 03:43 | -35.01504 | 138.43512 | 5124 ft | 245 kts | 228° |
| 2026-05-06 03:44 | -35.02884 | 138.42248 | 5949 ft | 254 kts | 206° |
| 2026-05-06 03:44 | -35.04643 | 138.41906 | 6826 ft | 265 kts | 177° |
| 2026-05-06 03:44 | -35.06388 | 138.42713 | 7701 ft | 277 kts | 150° |
| 2026-05-06 03:44 | -35.07930 | 138.44167 | 8566 ft | 283 kts | 144° |
| 2026-05-06 03:45 | -35.09432 | 138.45768 | 9321 ft | 291 kts | 139° |
| 2026-05-06 03:45 | -35.10635 | 138.47804 | 9753 ft | 301 kts | 121° |
| 2026-05-06 03:45 | -35.11311 | 138.50249 | 10194 ft | 314 kts | 101° |
| 2026-05-06 03:45 | -35.11158 | 138.52993 | 10523 ft | 338 kts | 74° |
| 2026-05-06 03:46 | -35.10375 | 138.55767 | 11006 ft | 353 kts | 74° |
| 2026-05-06 03:46 | -35.09930 | 138.58763 | 11476 ft | 366 kts | 88° |
| 2026-05-06 03:46 | -35.10172 | 138.61885 | 11918 ft | 376 kts | 107° |
| 2026-05-06 03:46 | -35.11050 | 138.64911 | 12516 ft | 381 kts | 114° |
| 2026-05-06 03:47 | -35.12099 | 138.67900 | 13214 ft | 385 kts | 116° |
| 2026-05-06 03:47 | -35.13184 | 138.70909 | 13902 ft | 389 kts | 116° |
| 2026-05-06 03:47 | -35.14237 | 138.73970 | 14584 ft | 393 kts | 115° |
| 2026-05-06 03:47 | -35.15253 | 138.77096 | 15234 ft | 398 kts | 114° |
| 2026-05-06 03:48 | -35.16250 | 138.80270 | 15860 ft | 402 kts | 113° |
| 2026-05-06 03:48 | -35.17260 | 138.83482 | 16479 ft | 406 kts | 114° |
| 2026-05-06 03:48 | -35.18293 | 138.86714 | 17093 ft | 410 kts | 114° |
| 2026-05-06 03:48 | -35.19347 | 138.89967 | 17678 ft | 414 kts | 114° |
| 2026-05-06 03:49 | -35.20418 | 138.93249 | 18258 ft | 418 kts | 114° |
| 2026-05-06 03:49 | -35.21496 | 138.96562 | 18824 ft | 421 kts | 114° |
| 2026-05-06 03:49 | -35.22578 | 138.99913 | 19372 ft | 425 kts | 114° |
| 2026-05-06 03:49 | -35.23661 | 139.03294 | 19897 ft | 429 kts | 114° |
| 2026-05-06 03:50 | -35.24732 | 139.06661 | 20401 ft | 433 kts | 114° |
| 2026-05-06 03:50 | -35.25822 | 139.10105 | 20904 ft | 436 kts | 114° |
| 2026-05-06 03:50 | -35.26932 | 139.13572 | 21392 ft | 439 kts | 114° |
| 2026-05-06 03:50 | -35.28058 | 139.17062 | 21869 ft | 443 kts | 114° |
| 2026-05-06 03:51 | -35.29191 | 139.20582 | 22324 ft | 446 kts | 114° |
| 2026-05-06 03:51 | -35.30325 | 139.24130 | 22776 ft | 449 kts | 114° |
| 2026-05-06 03:51 | -35.31458 | 139.27710 | 23208 ft | 453 kts | 114° |
| 2026-05-06 03:51 | -35.32598 | 139.31317 | 23637 ft | 455 kts | 114° |
| 2026-05-06 03:52 | -35.33747 | 139.34946 | 24042 ft | 459 kts | 114° |
| 2026-05-06 03:52 | -35.34910 | 139.38597 | 24453 ft | 462 kts | 114° |
| 2026-05-06 03:52 | -35.36079 | 139.42276 | 24844 ft | 465 kts | 114° |
| 2026-05-06 03:52 | -35.37256 | 139.45978 | 25229 ft | 467 kts | 113° |
| 2026-05-06 03:53 | -35.38435 | 139.49701 | 25607 ft | 470 kts | 113° |
| 2026-05-06 03:53 | -35.39619 | 139.53449 | 25978 ft | 473 kts | 113° |
| 2026-05-06 03:53 | -35.40808 | 139.57211 | 26334 ft | 475 kts | 113° |
| 2026-05-06 03:53 | -35.42006 | 139.61004 | 26684 ft | 478 kts | 113° |
| 2026-05-06 03:54 | -35.43205 | 139.64809 | 27021 ft | 480 kts | 113° |
| 2026-05-06 03:54 | -35.44405 | 139.68639 | 27357 ft | 482 kts | 113° |
| 2026-05-06 03:54 | -35.45611 | 139.72489 | 27685 ft | 484 kts | 112° |
| 2026-05-06 03:54 | -35.46822 | 139.76355 | 27995 ft | 487 kts | 112° |
| 2026-05-06 03:55 | -35.48034 | 139.80243 | 28306 ft | 489 kts | 112° |
| 2026-05-06 03:55 | -35.49246 | 139.84149 | 28608 ft | 491 kts | 112° |
| 2026-05-06 03:55 | -35.50467 | 139.88067 | 28896 ft | 493 kts | 112° |
| 2026-05-06 03:55 | -35.51697 | 139.91999 | 29240 ft | 493 kts | 112° |
| 2026-05-06 03:56 | -35.52926 | 139.95917 | 29637 ft | 492 kts | 112° |
| 2026-05-06 03:56 | -35.54151 | 139.99838 | 30024 ft | 491 kts | 112° |
| 2026-05-06 03:56 | -35.55367 | 140.03757 | 30375 ft | 491 kts | 112° |
| 2026-05-06 03:56 | -35.56580 | 140.07679 | 30695 ft | 492 kts | 112° |
| 2026-05-06 03:57 | -35.57792 | 140.11603 | 31048 ft | 491 kts | 112° |
| 2026-05-06 03:57 | -35.59005 | 140.15527 | 31353 ft | 492 kts | 112° |
| 2026-05-06 03:57 | -35.60222 | 140.19451 | 31705 ft | 491 kts | 112° |
| 2026-05-06 03:57 | -35.61443 | 140.23374 | 32004 ft | 491 kts | 112° |
| 2026-05-06 03:58 | -35.62656 | 140.27297 | 32325 ft | 492 kts | 111° |
| 2026-05-06 03:58 | -35.63845 | 140.31182 | 32633 ft | 491 kts | 111° |
| 2026-05-06 03:58 | -35.65048 | 140.35112 | 32932 ft | 492 kts | 111° |
| 2026-05-06 03:58 | -35.66252 | 140.39045 | 33244 ft | 492 kts | 111° |
| 2026-05-06 03:59 | -35.67459 | 140.42987 | 33495 ft | 493 kts | 111° |
| 2026-05-06 03:59 | -35.68685 | 140.46980 | 33817 ft | 492 kts | 111° |
| 2026-05-06 03:59 | -35.69879 | 140.50869 | 34079 ft | 493 kts | 111° |
| 2026-05-06 03:59 | -35.71086 | 140.54814 | 34381 ft | 493 kts | 111° |
| 2026-05-06 04:00 | -35.72285 | 140.58776 | 34641 ft | 493 kts | 111° |
| 2026-05-06 04:00 | -35.73485 | 140.62725 | 34928 ft | 493 kts | 110° |
| 2026-05-06 04:00 | -35.74691 | 140.66691 | 35168 ft | 494 kts | 111° |
| 2026-05-06 04:00 | -35.75893 | 140.70646 | 35247 ft | 493 kts | 110° |
| 2026-05-06 04:01 | -35.78284 | 140.78559 | 35242 ft | 494 kts | 110° |
| 2026-05-06 04:01 | -35.80679 | 140.86483 | 35240 ft | 494 kts | 110° |
| 2026-05-06 04:02 | -35.83075 | 140.94416 | 35238 ft | 494 kts | 110° |
| 2026-05-06 04:02 | -35.85462 | 141.02374 | 35245 ft | 495 kts | 110° |
| 2026-05-06 04:03 | -35.87838 | 141.10351 | 35262 ft | 496 kts | 110° |
| 2026-05-06 04:03 | -35.90233 | 141.18335 | 35264 ft | 495 kts | 110° |
| 2026-05-06 04:04 | -35.92613 | 141.26307 | 35245 ft | 495 kts | 110° |
| 2026-05-06 04:04 | -35.94972 | 141.34283 | 35254 ft | 494 kts | 109° |
| 2026-05-06 04:05 | -35.97336 | 141.42243 | 35218 ft | 494 kts | 110° |
| 2026-05-06 04:05 | -35.99689 | 141.50208 | 35177 ft | 494 kts | 109° |
| 2026-05-06 04:06 | -36.02027 | 141.58179 | 35162 ft | 494 kts | 109° |
| 2026-05-06 04:06 | -36.04374 | 141.66168 | 35162 ft | 495 kts | 109° |
| 2026-05-06 04:07 | -36.06720 | 141.74173 | 35156 ft | 496 kts | 109° |
| 2026-05-06 04:07 | -36.09069 | 141.82211 | 35159 ft | 498 kts | 109° |
| 2026-05-06 04:08 | -36.11401 | 141.90266 | 35197 ft | 498 kts | 109° |
| 2026-05-06 04:08 | -36.13747 | 141.98322 | 35241 ft | 497 kts | 109° |
| 2026-05-06 04:09 | -36.16081 | 142.06378 | 35236 ft | 498 kts | 109° |
| 2026-05-06 04:09 | -36.18663 | 142.14336 | 35234 ft | 498 kts | 112° |
| 2026-05-06 04:10 | -36.21395 | 142.22216 | 35236 ft | 498 kts | 113° |
| 2026-05-06 04:10 | -36.24106 | 142.30099 | 35219 ft | 498 kts | 112° |
| 2026-05-06 04:11 | -36.26794 | 142.38008 | 35189 ft | 498 kts | 112° |
| 2026-05-06 04:11 | -36.29453 | 142.45861 | 35180 ft | 497 kts | 112° |
| 2026-05-06 04:12 | -36.32136 | 142.53765 | 35151 ft | 498 kts | 112° |
| 2026-05-06 04:12 | -36.34818 | 142.61685 | 35141 ft | 498 kts | 112° |
| 2026-05-06 04:13 | -36.37488 | 142.69620 | 35143 ft | 498 kts | 112° |
| 2026-05-06 04:13 | -36.40169 | 142.77548 | 35151 ft | 498 kts | 112° |
| 2026-05-06 04:14 | -36.42829 | 142.85486 | 35156 ft | 498 kts | 112° |
| 2026-05-06 04:14 | -36.45479 | 142.93432 | 35166 ft | 498 kts | 112° |
| 2026-05-06 04:15 | -36.48127 | 143.01383 | 35174 ft | 498 kts | 111° |
| 2026-05-06 04:15 | -36.50769 | 143.09335 | 35180 ft | 498 kts | 112° |
| 2026-05-06 04:16 | -36.53419 | 143.17293 | 35183 ft | 498 kts | 111° |
| 2026-05-06 04:16 | -36.56049 | 143.25262 | 35187 ft | 498 kts | 111° |
| 2026-05-06 04:17 | -36.58657 | 143.33170 | 35224 ft | 497 kts | 111° |
| 2026-05-06 04:17 | -36.61270 | 143.41124 | 35209 ft | 497 kts | 111° |
| 2026-05-06 04:18 | -36.63884 | 143.49086 | 35175 ft | 497 kts | 111° |
| 2026-05-06 04:18 | -36.66492 | 143.57058 | 35146 ft | 497 kts | 111° |
| 2026-05-06 04:19 | -36.69093 | 143.65040 | 35127 ft | 497 kts | 111° |
| 2026-05-06 04:19 | -36.71692 | 143.73017 | 35130 ft | 497 kts | 111° |
| 2026-05-06 04:20 | -36.74330 | 143.80976 | 35121 ft | 497 kts | 116° |
| 2026-05-06 04:20 | -36.76202 | 143.84591 | 35132 ft | 496 kts | 129° |
| 2026-05-06 04:20 | -36.78398 | 143.87900 | 35140 ft | 495 kts | 132° |
| 2026-05-06 04:21 | -36.82954 | 143.94350 | 35102 ft | 496 kts | 133° |
| 2026-05-06 04:21 | -36.87422 | 144.00936 | 35099 ft | 497 kts | 130° |
| 2026-05-06 04:22 | -36.91064 | 144.06491 | 35108 ft | 497 kts | 130° |
| 2026-05-06 04:23 | -36.97742 | 144.16421 | 35127 ft | 497 kts | 131° |
| 2026-05-06 04:23 | -37.02190 | 144.23063 | 35114 ft | 498 kts | 130° |
| 2026-05-06 04:24 | -37.06621 | 144.29742 | 35118 ft | 498 kts | 130° |
| 2026-05-06 04:24 | -37.11062 | 144.36403 | 35114 ft | 499 kts | 131° |
| 2026-05-06 04:25 | -37.15506 | 144.43091 | 35087 ft | 500 kts | 130° |
| 2026-05-06 04:25 | -37.19948 | 144.49799 | 35111 ft | 499 kts | 130° |
| 2026-05-06 04:26 | -37.24384 | 144.56505 | 35120 ft | 500 kts | 130° |
| 2026-05-06 04:26 | -37.28819 | 144.63222 | 35124 ft | 500 kts | 130° |
| 2026-05-06 04:27 | -37.33246 | 144.69947 | 35131 ft | 500 kts | 130° |
| 2026-05-06 04:27 | -37.37332 | 144.76167 | 35104 ft | 500 kts | 130° |
| 2026-05-06 04:28 | -37.41760 | 144.82923 | 35072 ft | 501 kts | 130° |
| 2026-05-06 04:28 | -37.46187 | 144.89694 | 35069 ft | 501 kts | 130° |
| 2026-05-06 04:29 | -37.50611 | 144.96463 | 35065 ft | 501 kts | 130° |
| 2026-05-06 04:29 | -37.55042 | 145.03241 | 35068 ft | 501 kts | 130° |
| 2026-05-06 04:30 | -37.59454 | 145.10036 | 35075 ft | 501 kts | 130° |
| 2026-05-06 04:30 | -37.63868 | 145.16843 | 35076 ft | 501 kts | 130° |
| 2026-05-06 04:31 | -37.68289 | 145.23657 | 35051 ft | 502 kts | 130° |
| 2026-05-06 04:31 | -37.72669 | 145.30442 | 35064 ft | 502 kts | 130° |
| 2026-05-06 04:32 | -37.77086 | 145.37272 | 35085 ft | 502 kts | 130° |
| 2026-05-06 04:32 | -37.81492 | 145.44104 | 35129 ft | 501 kts | 129° |
| 2026-05-06 04:33 | -37.85883 | 145.50951 | 35095 ft | 501 kts | 129° |
| 2026-05-06 04:33 | -37.90288 | 145.57805 | 35055 ft | 502 kts | 129° |
| 2026-05-06 04:34 | -37.93843 | 145.65351 | 35058 ft | 499 kts | 110° |
| 2026-05-06 04:34 | -37.96233 | 145.73606 | 35043 ft | 499 kts | 107° |
| 2026-05-06 04:35 | -37.98565 | 145.81918 | 35025 ft | 501 kts | 108° |
| 2026-05-06 04:35 | -38.01031 | 145.90125 | 35048 ft | 502 kts | 109° |
| 2026-05-06 04:36 | -38.03489 | 145.98404 | 35093 ft | 501 kts | 108° |
| 2026-05-06 04:36 | -38.05878 | 146.06708 | 35117 ft | 501 kts | 108° |
| 2026-05-06 04:37 | -38.08290 | 146.15017 | 35116 ft | 501 kts | 108° |
| 2026-05-06 04:37 | -38.10713 | 146.23307 | 35112 ft | 501 kts | 108° |
| 2026-05-06 04:38 | -38.13111 | 146.31612 | 35088 ft | 500 kts | 108° |
| 2026-05-06 04:38 | -38.15482 | 146.39868 | 35050 ft | 501 kts | 108° |
| 2026-05-06 04:39 | -38.17874 | 146.48171 | 35024 ft | 501 kts | 108° |
| 2026-05-06 04:39 | -38.20256 | 146.56482 | 35015 ft | 500 kts | 108° |
| 2026-05-06 04:40 | -38.22631 | 146.64806 | 35015 ft | 500 kts | 108° |
| 2026-05-06 04:40 | -38.25004 | 146.73122 | 35020 ft | 500 kts | 108° |
| 2026-05-06 04:41 | -38.27371 | 146.81456 | 35029 ft | 500 kts | 108° |
| 2026-05-06 04:41 | -38.29719 | 146.89790 | 35039 ft | 500 kts | 108° |
| 2026-05-06 04:42 | -38.32076 | 146.98125 | 35042 ft | 500 kts | 108° |
| 2026-05-06 04:42 | -38.34423 | 147.06467 | 35044 ft | 500 kts | 108° |
| 2026-05-06 04:43 | -38.36759 | 147.14819 | 35050 ft | 500 kts | 108° |
| 2026-05-06 04:43 | -38.39079 | 147.23115 | 35056 ft | 500 kts | 108° |
| 2026-05-06 04:44 | -38.41407 | 147.31471 | 35062 ft | 500 kts | 107° |
| 2026-05-06 04:44 | -38.43723 | 147.39830 | 35061 ft | 500 kts | 107° |
| 2026-05-06 04:45 | -38.46038 | 147.48192 | 35049 ft | 500 kts | 107° |
| 2026-05-06 04:45 | -38.48348 | 147.56559 | 35029 ft | 500 kts | 107° |
| 2026-05-06 04:46 | -38.50647 | 147.64928 | 35012 ft | 500 kts | 107° |
| 2026-05-06 04:46 | -38.52942 | 147.73302 | 35001 ft | 500 kts | 107° |
| 2026-05-06 04:47 | -38.55233 | 147.81682 | 34999 ft | 500 kts | 107° |
| 2026-05-06 04:47 | -38.57517 | 147.90062 | 35000 ft | 500 kts | 107° |
| 2026-05-06 04:48 | -38.59792 | 147.98449 | 35000 ft | 500 kts | 107° |
| 2026-05-06 04:48 | -38.62062 | 148.06844 | 35026 ft | 499 kts | 107° |
| 2026-05-06 04:49 | -38.64323 | 148.15227 | 35085 ft | 498 kts | 107° |
| 2026-05-06 04:49 | -38.66574 | 148.23607 | 35068 ft | 498 kts | 107° |
| 2026-05-06 04:50 | -38.68823 | 148.31982 | 35069 ft | 498 kts | 107° |
| 2026-05-06 04:50 | -38.71057 | 148.40368 | 35068 ft | 497 kts | 107° |
| 2026-05-06 04:51 | -38.73289 | 148.48757 | 35054 ft | 497 kts | 107° |
| 2026-05-06 04:51 | -38.75514 | 148.57132 | 35062 ft | 496 kts | 107° |
| 2026-05-06 04:52 | -38.77726 | 148.65507 | 35031 ft | 496 kts | 107° |
| 2026-05-06 04:52 | -38.79930 | 148.73878 | 35025 ft | 495 kts | 107° |
| 2026-05-06 04:53 | -38.82128 | 148.82246 | 34990 ft | 495 kts | 107° |
| 2026-05-06 04:53 | -38.84322 | 148.90613 | 34996 ft | 494 kts | 107° |
| 2026-05-06 04:54 | -38.86502 | 148.98975 | 34976 ft | 494 kts | 107° |
| 2026-05-06 04:54 | -38.88670 | 149.07328 | 34999 ft | 493 kts | 107° |
| 2026-05-06 04:55 | -38.90838 | 149.15683 | 35002 ft | 492 kts | 107° |
| 2026-05-06 04:55 | -38.92977 | 149.23967 | 34992 ft | 492 kts | 107° |
| 2026-05-06 04:56 | -38.95128 | 149.32320 | 34989 ft | 492 kts | 106° |
| 2026-05-06 04:56 | -38.97272 | 149.40681 | 34987 ft | 492 kts | 106° |
| 2026-05-06 04:57 | -38.99406 | 149.49036 | 35013 ft | 492 kts | 106° |
| 2026-05-06 04:57 | -39.01535 | 149.57383 | 35060 ft | 491 kts | 106° |
| 2026-05-06 04:58 | -39.03654 | 149.65726 | 35026 ft | 491 kts | 106° |
| 2026-05-06 04:58 | -39.05766 | 149.74082 | 35002 ft | 491 kts | 106° |
| 2026-05-06 04:59 | -39.07870 | 149.82424 | 35031 ft | 490 kts | 106° |
| 2026-05-06 04:59 | -39.09968 | 149.90758 | 35019 ft | 489 kts | 106° |
| 2026-05-06 05:00 | -39.12056 | 149.99100 | 34999 ft | 489 kts | 106° |
| 2026-05-06 05:00 | -39.14138 | 150.07438 | 35031 ft | 488 kts | 106° |
| 2026-05-06 05:01 | -39.16205 | 150.15752 | 35058 ft | 487 kts | 106° |
| 2026-05-06 05:01 | -39.18252 | 150.24004 | 35040 ft | 486 kts | 106° |
| 2026-05-06 05:02 | -39.20305 | 150.32306 | 35000 ft | 486 kts | 106° |
| 2026-05-06 05:02 | -39.22349 | 150.40614 | 34987 ft | 485 kts | 106° |
| 2026-05-06 05:03 | -39.24302 | 150.48937 | 34988 ft | 484 kts | 103° |
| 2026-05-06 05:03 | -39.26064 | 150.57326 | 34970 ft | 485 kts | 103° |
| 2026-05-06 05:04 | -39.27809 | 150.65730 | 34971 ft | 485 kts | 103° |
| 2026-05-06 05:04 | -39.29570 | 150.74136 | 35008 ft | 484 kts | 103° |
| 2026-05-06 05:05 | -39.31315 | 150.82517 | 35027 ft | 484 kts | 103° |
| 2026-05-06 05:05 | -39.33050 | 150.90909 | 35045 ft | 483 kts | 103° |
| 2026-05-06 05:06 | -39.34780 | 150.99291 | 35055 ft | 483 kts | 103° |
| 2026-05-06 05:06 | -39.36501 | 151.07673 | 35046 ft | 483 kts | 103° |
| 2026-05-06 05:07 | -39.38216 | 151.16057 | 35056 ft | 482 kts | 103° |
| 2026-05-06 05:07 | -39.39924 | 151.24430 | 35049 ft | 481 kts | 103° |
| 2026-05-06 05:08 | -39.41622 | 151.32802 | 35023 ft | 481 kts | 103° |
| 2026-05-06 05:08 | -39.43303 | 151.41115 | 35005 ft | 481 kts | 102° |
| 2026-05-06 05:09 | -39.44999 | 151.49542 | 34992 ft | 480 kts | 102° |
| 2026-05-06 05:09 | -39.46664 | 151.57839 | 35003 ft | 479 kts | 102° |
| 2026-05-06 05:10 | -39.48334 | 151.66204 | 34972 ft | 479 kts | 102° |
| 2026-05-06 05:10 | -39.49995 | 151.74560 | 34955 ft | 479 kts | 102° |
| 2026-05-06 05:11 | -39.51652 | 151.82920 | 34957 ft | 479 kts | 102° |
| 2026-05-06 05:11 | -39.53022 | 151.89869 | 34955 ft | 479 kts | 102° |
| 2026-05-06 05:12 | -39.54666 | 151.98222 | 34965 ft | 479 kts | 102° |
| 2026-05-06 05:12 | -39.56303 | 152.06580 | 34976 ft | 478 kts | 102° |
| 2026-05-06 05:13 | -39.57930 | 152.14928 | 35009 ft | 478 kts | 102° |
| 2026-05-06 05:13 | -39.59552 | 152.23277 | 34998 ft | 478 kts | 102° |
| 2026-05-06 05:14 | -39.61167 | 152.31633 | 35002 ft | 478 kts | 102° |
| 2026-05-06 05:14 | -39.62775 | 152.39984 | 35040 ft | 476 kts | 102° |
| 2026-05-06 05:15 | -39.64375 | 152.48321 | 35004 ft | 477 kts | 102° |
| 2026-05-06 05:15 | -39.65967 | 152.56665 | 34988 ft | 476 kts | 102° |
| 2026-05-06 05:16 | -39.67553 | 152.65007 | 34986 ft | 475 kts | 102° |
| 2026-05-06 05:16 | -39.69131 | 152.73339 | 34978 ft | 475 kts | 102° |
| 2026-05-06 05:17 | -39.70694 | 152.81627 | 34949 ft | 475 kts | 102° |
| 2026-05-06 05:17 | -39.72258 | 152.89960 | 34973 ft | 474 kts | 102° |
| 2026-05-06 05:18 | -39.73815 | 152.98283 | 34975 ft | 474 kts | 102° |
| 2026-05-06 05:18 | -39.75365 | 153.06606 | 35027 ft | 473 kts | 102° |
| 2026-05-06 05:19 | -39.76902 | 153.14898 | 35033 ft | 472 kts | 102° |
| 2026-05-06 05:19 | -39.78433 | 153.23196 | 35026 ft | 472 kts | 102° |
| 2026-05-06 05:20 | -39.79959 | 153.31499 | 35001 ft | 471 kts | 102° |
| 2026-05-06 05:20 | -39.81476 | 153.39787 | 35032 ft | 470 kts | 102° |
| 2026-05-06 05:21 | -39.82981 | 153.48045 | 35010 ft | 469 kts | 102° |
| 2026-05-06 05:21 | -39.84478 | 153.56299 | 34969 ft | 469 kts | 102° |
| 2026-05-06 05:22 | -39.85960 | 153.64505 | 34945 ft | 468 kts | 102° |
| 2026-05-06 05:22 | -39.87443 | 153.72752 | 34942 ft | 468 kts | 102° |
| 2026-05-06 05:23 | -39.88921 | 153.81004 | 34960 ft | 468 kts | 101° |
| 2026-05-06 05:23 | -39.91123 | 153.93375 | 35033 ft | 467 kts | 101° |
| 2026-05-06 05:24 | -39.92582 | 154.01616 | 35010 ft | 467 kts | 101° |
| 2026-05-06 05:24 | -39.94037 | 154.09863 | 35016 ft | 467 kts | 101° |
| 2026-05-06 05:25 | -39.95484 | 154.18106 | 34980 ft | 467 kts | 101° |
| 2026-05-06 05:25 | -39.96924 | 154.26352 | 34954 ft | 467 kts | 101° |
| 2026-05-06 05:26 | -39.98361 | 154.34612 | 34944 ft | 467 kts | 101° |
| 2026-05-06 05:26 | -39.99792 | 154.42874 | 34945 ft | 467 kts | 101° |
| 2026-05-06 05:27 | -40.01218 | 154.51139 | 34946 ft | 467 kts | 101° |
| 2026-05-06 05:27 | -40.02638 | 154.59425 | 34953 ft | 468 kts | 101° |
| 2026-05-06 05:28 | -40.04053 | 154.67704 | 34992 ft | 468 kts | 101° |
| 2026-05-06 05:28 | -40.05465 | 154.76000 | 34974 ft | 469 kts | 101° |
| 2026-05-06 05:29 | -40.06870 | 154.84316 | 34983 ft | 469 kts | 101° |
| 2026-05-06 05:29 | -40.08270 | 154.92627 | 34985 ft | 469 kts | 101° |
| 2026-05-06 05:30 | -40.09665 | 155.00940 | 35003 ft | 469 kts | 100° |
| 2026-05-06 05:30 | -40.11053 | 155.09256 | 34997 ft | 469 kts | 100° |
| 2026-05-06 05:31 | -40.12427 | 155.17533 | 34992 ft | 469 kts | 100° |
| 2026-05-06 05:31 | -40.13803 | 155.25853 | 35024 ft | 468 kts | 100° |
| 2026-05-06 05:32 | -40.15172 | 155.34161 | 35020 ft | 468 kts | 100° |
| 2026-05-06 05:32 | -40.16542 | 155.42536 | 34988 ft | 468 kts | 100° |
| 2026-05-06 05:33 | -40.17898 | 155.50861 | 34973 ft | 468 kts | 100° |
| 2026-05-06 05:33 | -40.19238 | 155.59114 | 35013 ft | 467 kts | 100° |
| 2026-05-06 05:34 | -40.20581 | 155.67428 | 34982 ft | 467 kts | 100° |
| 2026-05-06 05:34 | -40.21916 | 155.75742 | 34948 ft | 467 kts | 100° |
| 2026-05-06 05:35 | -40.23247 | 155.84065 | 34953 ft | 467 kts | 100° |
| 2026-05-06 05:35 | -40.24569 | 155.92374 | 34972 ft | 466 kts | 100° |
| 2026-05-06 05:36 | -40.25887 | 156.00701 | 34964 ft | 467 kts | 100° |
| 2026-05-06 05:36 | -40.27199 | 156.09025 | 34967 ft | 467 kts | 100° |
| 2026-05-06 05:37 | -40.28505 | 156.17354 | 34975 ft | 467 kts | 100° |
| 2026-05-06 05:37 | -40.29804 | 156.25684 | 34957 ft | 467 kts | 99° |
| 2026-05-06 05:38 | -40.31100 | 156.34032 | 34951 ft | 467 kts | 99° |
| 2026-05-06 05:38 | -40.32389 | 156.42377 | 34956 ft | 467 kts | 99° |
| 2026-05-06 05:39 | -40.33663 | 156.50673 | 34960 ft | 467 kts | 99° |
| 2026-05-06 05:39 | -40.34941 | 156.59029 | 34962 ft | 467 kts | 99° |
| 2026-05-06 05:40 | -40.36213 | 156.67394 | 34945 ft | 468 kts | 99° |
| 2026-05-06 05:40 | -40.37480 | 156.75767 | 34955 ft | 468 kts | 99° |
| 2026-05-06 05:41 | -40.38737 | 156.84142 | 34966 ft | 468 kts | 99° |
| 2026-05-06 05:41 | -40.39992 | 156.92514 | 34976 ft | 468 kts | 99° |
| 2026-05-06 05:42 | -40.41241 | 157.00910 | 34947 ft | 469 kts | 99° |
| 2026-05-06 05:42 | -40.42484 | 157.09312 | 34961 ft | 469 kts | 99° |
| 2026-05-06 05:43 | -40.43722 | 157.17709 | 34965 ft | 469 kts | 99° |
| 2026-05-06 05:43 | -40.44952 | 157.26110 | 35002 ft | 468 kts | 98° |
| 2026-05-06 05:44 | -40.46173 | 157.34508 | 35000 ft | 468 kts | 98° |
| 2026-05-06 05:44 | -40.47391 | 157.42908 | 34979 ft | 468 kts | 98° |
| 2026-05-06 05:45 | -40.48603 | 157.51310 | 34972 ft | 468 kts | 98° |
| 2026-05-06 05:45 | -40.49808 | 157.59721 | 34960 ft | 468 kts | 98° |
| 2026-05-06 05:46 | -40.51008 | 157.68134 | 34961 ft | 468 kts | 98° |
| 2026-05-06 05:46 | -40.52200 | 157.76548 | 34960 ft | 469 kts | 98° |
| 2026-05-06 05:47 | -40.53388 | 157.84972 | 34970 ft | 468 kts | 98° |
| 2026-05-06 05:47 | -40.54569 | 157.93390 | 34974 ft | 468 kts | 98° |
| 2026-05-06 05:48 | -40.55745 | 158.01819 | 34982 ft | 468 kts | 98° |
| 2026-05-06 05:48 | -40.56915 | 158.10263 | 34955 ft | 469 kts | 98° |
| 2026-05-06 05:49 | -40.58081 | 158.18710 | 34963 ft | 469 kts | 98° |
| 2026-05-06 05:49 | -40.59239 | 158.27158 | 34974 ft | 469 kts | 98° |
| 2026-05-06 05:50 | -40.60390 | 158.35608 | 34988 ft | 469 kts | 98° |
| 2026-05-06 05:50 | -40.61536 | 158.44058 | 34997 ft | 469 kts | 98° |
| 2026-05-06 05:51 | -40.62677 | 158.52510 | 34994 ft | 469 kts | 97° |
| 2026-05-06 05:51 | -40.63810 | 158.60973 | 34970 ft | 470 kts | 97° |
| 2026-05-06 05:52 | -40.64938 | 158.69437 | 34991 ft | 469 kts | 97° |
| 2026-05-06 05:52 | -40.66053 | 158.77853 | 34969 ft | 470 kts | 97° |
| 2026-05-06 05:53 | -40.67169 | 158.86335 | 34975 ft | 470 kts | 97° |
| 2026-05-06 05:53 | -40.68281 | 158.94820 | 34975 ft | 470 kts | 97° |
| 2026-05-06 05:54 | -40.69389 | 159.03325 | 34972 ft | 471 kts | 97° |
| 2026-05-06 05:54 | -40.70488 | 159.11831 | 34986 ft | 471 kts | 97° |
| 2026-05-06 05:55 | -40.71583 | 159.20348 | 34976 ft | 471 kts | 97° |
| 2026-05-06 05:55 | -40.72673 | 159.28867 | 34983 ft | 472 kts | 97° |
| 2026-05-06 05:56 | -40.73575 | 159.35965 | 34981 ft | 472 kts | 96° |
| 2026-05-06 05:56 | -40.74654 | 159.44500 | 35015 ft | 472 kts | 96° |
| 2026-05-06 05:57 | -40.75728 | 159.53044 | 34990 ft | 473 kts | 96° |
| 2026-05-06 05:57 | -40.76795 | 159.61596 | 35012 ft | 472 kts | 96° |
| 2026-05-06 05:58 | -40.77857 | 159.70152 | 35016 ft | 473 kts | 96° |
| 2026-05-06 05:58 | -40.78912 | 159.78712 | 34992 ft | 473 kts | 96° |
| 2026-05-06 05:59 | -40.79962 | 159.87288 | 35004 ft | 473 kts | 96° |
| 2026-05-06 05:59 | -40.81007 | 159.95863 | 35007 ft | 473 kts | 96° |
| 2026-05-06 06:00 | -40.82045 | 160.04444 | 35007 ft | 473 kts | 96° |
| 2026-05-06 06:00 | -40.83076 | 160.13038 | 34991 ft | 474 kts | 96° |
| 2026-05-06 06:01 | -40.84105 | 160.21653 | 34989 ft | 476 kts | 96° |
| 2026-05-06 06:01 | -40.85130 | 160.30288 | 35024 ft | 475 kts | 95° |
| 2026-05-06 06:02 | -40.86146 | 160.38913 | 35046 ft | 476 kts | 95° |
| 2026-05-06 06:02 | -40.87157 | 160.47558 | 35033 ft | 476 kts | 95° |
| 2026-05-06 06:03 | -40.88162 | 160.56206 | 35055 ft | 476 kts | 95° |
| 2026-05-06 06:03 | -40.89161 | 160.64852 | 35039 ft | 476 kts | 95° |
| 2026-05-06 06:04 | -40.90155 | 160.73516 | 35021 ft | 477 kts | 95° |
| 2026-05-06 06:04 | -40.91136 | 160.82133 | 34997 ft | 478 kts | 95° |
| 2026-05-06 06:05 | -40.92119 | 160.90813 | 35000 ft | 478 kts | 95° |
| 2026-05-06 06:05 | -40.93097 | 160.99509 | 35005 ft | 478 kts | 95° |
| 2026-05-06 06:06 | -40.94068 | 161.08218 | 35012 ft | 479 kts | 94° |
| 2026-05-06 06:06 | -40.95035 | 161.16946 | 35008 ft | 480 kts | 94° |
| 2026-05-06 06:07 | -40.95997 | 161.25690 | 35044 ft | 480 kts | 94° |
| 2026-05-06 06:07 | -40.96951 | 161.34426 | 35068 ft | 480 kts | 94° |
| 2026-05-06 06:08 | -40.97898 | 161.43163 | 35088 ft | 480 kts | 94° |
| 2026-05-06 06:08 | -40.98839 | 161.51917 | 35061 ft | 480 kts | 94° |
| 2026-05-06 06:09 | -40.99777 | 161.60675 | 35047 ft | 481 kts | 94° |
| 2026-05-06 06:09 | -41.00706 | 161.69441 | 35017 ft | 481 kts | 94° |
| 2026-05-06 06:10 | -41.01628 | 161.78212 | 35015 ft | 481 kts | 94° |
| 2026-05-06 06:10 | -41.02546 | 161.86994 | 35017 ft | 481 kts | 94° |
| 2026-05-06 06:11 | -41.03456 | 161.95763 | 35059 ft | 480 kts | 94° |
| 2026-05-06 06:11 | -41.04359 | 162.04525 | 35076 ft | 480 kts | 93° |
| 2026-05-06 06:12 | -41.05247 | 162.13233 | 35064 ft | 481 kts | 93° |
| 2026-05-06 06:12 | -41.06137 | 162.22022 | 35067 ft | 482 kts | 93° |
| 2026-05-06 06:13 | -41.07025 | 162.30839 | 35071 ft | 483 kts | 92° |
| 2026-05-06 06:13 | -41.07904 | 162.39668 | 35106 ft | 483 kts | 92° |
| 2026-05-06 06:14 | -41.08779 | 162.48503 | 35148 ft | 483 kts | 92° |
| 2026-05-06 06:14 | -41.09645 | 162.57328 | 35157 ft | 483 kts | 92° |
| 2026-05-06 06:15 | -41.10505 | 162.66163 | 35136 ft | 483 kts | 92° |
| 2026-05-06 06:15 | -41.11360 | 162.75004 | 35137 ft | 483 kts | 92° |
| 2026-05-06 06:16 | -41.12208 | 162.83854 | 35112 ft | 484 kts | 92° |
| 2026-05-06 06:16 | -41.13049 | 162.92711 | 35094 ft | 484 kts | 92° |
| 2026-05-06 06:17 | -41.13847 | 163.01580 | 35081 ft | 483 kts | 90° |
| 2026-05-06 06:17 | -41.14447 | 163.10449 | 35083 ft | 483 kts | 89° |
| 2026-05-06 06:18 | -41.15019 | 163.19265 | 35097 ft | 483 kts | 89° |
| 2026-05-06 06:18 | -41.15605 | 163.28159 | 35100 ft | 484 kts | 89° |
| 2026-05-06 06:19 | -41.16185 | 163.37057 | 35105 ft | 484 kts | 89° |
| 2026-05-06 06:19 | -41.16753 | 163.45958 | 35100 ft | 484 kts | 89° |
| 2026-05-06 06:20 | -41.17316 | 163.54865 | 35129 ft | 484 kts | 89° |
| 2026-05-06 06:20 | -41.17854 | 163.63477 | 35126 ft | 484 kts | 89° |
| 2026-05-06 06:21 | -41.18420 | 163.72690 | 35121 ft | 485 kts | 89° |
| 2026-05-06 06:21 | -41.18964 | 163.81615 | 35112 ft | 485 kts | 88° |
| 2026-05-06 06:22 | -41.19501 | 163.90544 | 35112 ft | 485 kts | 88° |
| 2026-05-06 06:22 | -41.20032 | 163.99471 | 35102 ft | 485 kts | 88° |
| 2026-05-06 06:23 | -41.20554 | 164.08421 | 35095 ft | 486 kts | 88° |
| 2026-05-06 06:23 | -41.21071 | 164.17381 | 35100 ft | 487 kts | 88° |
| 2026-05-06 06:24 | -41.21583 | 164.26364 | 35097 ft | 488 kts | 88° |
| 2026-05-06 06:24 | -41.22085 | 164.35308 | 35119 ft | 489 kts | 88° |
| 2026-05-06 06:25 | -41.22584 | 164.44308 | 35156 ft | 489 kts | 88° |
| 2026-05-06 06:26 | -41.23322 | 164.57883 | 35139 ft | 490 kts | 88° |
| 2026-05-06 06:26 | -41.23800 | 164.66845 | 35148 ft | 489 kts | 88° |
| 2026-05-06 06:27 | -41.24276 | 164.75864 | 35159 ft | 489 kts | 88° |
| 2026-05-06 06:27 | -41.24743 | 164.84979 | 35167 ft | 500 kts | 89° |
| 2026-05-06 06:28 | -41.25219 | 164.94267 | 35164 ft | 507 kts | 89° |
| 2026-05-06 06:28 | -41.25696 | 165.03654 | 35164 ft | 511 kts | 89° |
| 2026-05-06 06:29 | -41.26160 | 165.13115 | 35164 ft | 514 kts | 89° |
| 2026-05-06 06:29 | -41.26623 | 165.22615 | 35164 ft | 515 kts | 89° |
| 2026-05-06 06:30 | -41.27079 | 165.32130 | 35166 ft | 516 kts | 89° |
| 2026-05-06 06:30 | -41.27525 | 165.41657 | 35140 ft | 517 kts | 89° |
| 2026-05-06 06:31 | -41.27963 | 165.51192 | 35115 ft | 517 kts | 89° |
| 2026-05-06 06:31 | -41.28397 | 165.60740 | 35113 ft | 518 kts | 89° |
| 2026-05-06 06:32 | -41.28826 | 165.70297 | 35121 ft | 518 kts | 89° |
| 2026-05-06 06:32 | -41.29235 | 165.79864 | 35125 ft | 519 kts | 89° |
| 2026-05-06 06:33 | -41.29645 | 165.89442 | 35143 ft | 519 kts | 89° |
| 2026-05-06 06:33 | -41.30050 | 165.99016 | 35166 ft | 519 kts | 89° |
| 2026-05-06 06:34 | -41.30438 | 166.08537 | 35164 ft | 519 kts | 89° |
| 2026-05-06 06:34 | -41.30826 | 166.18137 | 35125 ft | 521 kts | 89° |
| 2026-05-06 06:35 | -41.31213 | 166.27759 | 35122 ft | 521 kts | 89° |
| 2026-05-06 06:35 | -41.31582 | 166.37382 | 35144 ft | 521 kts | 89° |
| 2026-05-06 06:36 | -41.31936 | 166.47007 | 35169 ft | 521 kts | 89° |
| 2026-05-06 06:36 | -41.32298 | 166.56617 | 35213 ft | 520 kts | 89° |
| 2026-05-06 06:37 | -41.32647 | 166.66222 | 35198 ft | 520 kts | 89° |
| 2026-05-06 06:37 | -41.32984 | 166.75830 | 35195 ft | 519 kts | 89° |
| 2026-05-06 06:38 | -41.33316 | 166.85420 | 35206 ft | 519 kts | 90° |
| 2026-05-06 06:38 | -41.33637 | 166.95003 | 35165 ft | 518 kts | 89° |
| 2026-05-06 06:39 | -41.33949 | 167.04587 | 35127 ft | 519 kts | 90° |
| 2026-05-06 06:39 | -41.34256 | 167.14174 | 35132 ft | 519 kts | 90° |
| 2026-05-06 06:40 | -41.34551 | 167.23773 | 35139 ft | 519 kts | 90° |
| 2026-05-06 06:40 | -41.34838 | 167.33302 | 35157 ft | 519 kts | 90° |
| 2026-05-06 06:41 | -41.35129 | 167.42901 | 35174 ft | 519 kts | 90° |
| 2026-05-06 06:41 | -41.35401 | 167.52478 | 35204 ft | 518 kts | 90° |
| 2026-05-06 06:42 | -41.35665 | 167.62071 | 35187 ft | 518 kts | 90° |
| 2026-05-06 06:42 | -41.35927 | 167.71667 | 35170 ft | 519 kts | 90° |
| 2026-05-06 06:43 | -41.36142 | 167.79950 | 35161 ft | 519 kts | 90° |
| 2026-05-06 06:43 | -41.36387 | 167.89543 | 35181 ft | 518 kts | 90° |
| 2026-05-06 06:44 | -41.36617 | 167.99109 | 35263 ft | 517 kts | 90° |
| 2026-05-06 06:44 | -41.36808 | 168.07063 | 35269 ft | 517 kts | 90° |
| 2026-05-06 06:45 | -41.37025 | 168.16642 | 35312 ft | 516 kts | 90° |
| 2026-05-06 06:45 | -41.37232 | 168.26188 | 35361 ft | 516 kts | 90° |
| 2026-05-06 06:46 | -41.37443 | 168.35732 | 35360 ft | 516 kts | 90° |
| 2026-05-06 06:46 | -41.37634 | 168.45275 | 35360 ft | 515 kts | 90° |
| 2026-05-06 06:47 | -41.37826 | 168.54814 | 35341 ft | 514 kts | 90° |
| 2026-05-06 06:47 | -41.38007 | 168.64331 | 35312 ft | 514 kts | 90° |
| 2026-05-06 06:48 | -41.38173 | 168.73838 | 35277 ft | 514 kts | 90° |
| 2026-05-06 06:48 | -41.38348 | 168.83345 | 35262 ft | 513 kts | 90° |
| 2026-05-06 06:49 | -41.38497 | 168.92839 | 35256 ft | 513 kts | 90° |
| 2026-05-06 06:49 | -41.38643 | 169.02329 | 35274 ft | 512 kts | 90° |
| 2026-05-06 06:50 | -41.38786 | 169.11793 | 35298 ft | 511 kts | 90° |
| 2026-05-06 06:50 | -41.38920 | 169.21244 | 35282 ft | 510 kts | 90° |
| 2026-05-06 06:51 | -41.39044 | 169.30685 | 35258 ft | 510 kts | 90° |
| 2026-05-06 06:51 | -41.39160 | 169.40133 | 35263 ft | 509 kts | 90° |
| 2026-05-06 06:52 | -41.39268 | 169.49560 | 35250 ft | 509 kts | 90° |
| 2026-05-06 06:52 | -41.39372 | 169.59007 | 35239 ft | 509 kts | 90° |
| 2026-05-06 06:53 | -41.39460 | 169.68439 | 35261 ft | 509 kts | 90° |
| 2026-05-06 06:53 | -41.39543 | 169.77854 | 35265 ft | 509 kts | 90° |
| 2026-05-06 06:54 | -41.39621 | 169.87274 | 35259 ft | 509 kts | 90° |
| 2026-05-06 06:54 | -41.39697 | 169.96636 | 35258 ft | 509 kts | 90° |
| 2026-05-06 06:55 | -41.39760 | 170.06047 | 35264 ft | 508 kts | 90° |
| 2026-05-06 06:55 | -41.39804 | 170.15451 | 35316 ft | 506 kts | 90° |
| 2026-05-06 06:56 | -41.39854 | 170.24821 | 35336 ft | 505 kts | 90° |
| 2026-05-06 06:56 | -41.39893 | 170.34173 | 35329 ft | 505 kts | 90° |
| 2026-05-06 06:57 | -41.39915 | 170.43523 | 35290 ft | 505 kts | 89° |
| 2026-05-06 06:57 | -41.39820 | 170.52867 | 35260 ft | 503 kts | 89° |
| 2026-05-06 06:57 | -41.39770 | 170.57474 | 35268 ft | 492 kts | 89° |
| 2026-05-06 06:58 | -41.39727 | 170.61984 | 35279 ft | 484 kts | 89° |
| 2026-05-06 06:58 | -41.39653 | 170.70928 | 35295 ft | 482 kts | 89° |
| 2026-05-06 06:59 | -41.39574 | 170.79859 | 35300 ft | 482 kts | 89° |
| 2026-05-06 06:59 | -41.39475 | 170.88786 | 35302 ft | 481 kts | 89° |
| 2026-05-06 07:00 | -41.39379 | 170.97699 | 35304 ft | 481 kts | 89° |
| 2026-05-06 07:00 | -41.39270 | 171.06620 | 35304 ft | 481 kts | 89° |
| 2026-05-06 07:01 | -41.39160 | 171.15517 | 35337 ft | 480 kts | 89° |
| 2026-05-06 07:01 | -41.39033 | 171.24423 | 35323 ft | 480 kts | 89° |
| 2026-05-06 07:02 | -41.38910 | 171.33311 | 35304 ft | 480 kts | 89° |
| 2026-05-06 07:02 | -41.38778 | 171.42205 | 35279 ft | 480 kts | 89° |
| 2026-05-06 07:03 | -41.38633 | 171.51098 | 35260 ft | 480 kts | 89° |
| 2026-05-06 07:03 | -41.38489 | 171.59992 | 35254 ft | 480 kts | 89° |
| 2026-05-06 07:04 | -41.38337 | 171.68881 | 35294 ft | 479 kts | 89° |
| 2026-05-06 07:04 | -41.38174 | 171.77741 | 35316 ft | 479 kts | 89° |
| 2026-05-06 07:05 | -41.38002 | 171.86603 | 35301 ft | 479 kts | 89° |
| 2026-05-06 07:05 | -41.37917 | 171.91015 | 35110 ft | 474 kts | 89° |
| 2026-05-06 07:05 | -41.37833 | 171.95375 | 34558 ft | 470 kts | 89° |
| 2026-05-06 07:05 | -41.37751 | 171.99732 | 33679 ft | 472 kts | 89° |
| 2026-05-06 07:06 | -41.37662 | 172.04127 | 32731 ft | 476 kts | 89° |
| 2026-05-06 07:06 | -41.37565 | 172.08510 | 32086 ft | 471 kts | 89° |
| 2026-05-06 07:06 | -41.37468 | 172.12842 | 31478 ft | 466 kts | 89° |
| 2026-05-06 07:06 | -41.37375 | 172.17134 | 30837 ft | 461 kts | 89° |
| 2026-05-06 07:07 | -41.37282 | 172.21383 | 30220 ft | 456 kts | 89° |
| 2026-05-06 07:07 | -41.37188 | 172.25580 | 29599 ft | 451 kts | 89° |
| 2026-05-06 07:07 | -41.37092 | 172.29728 | 28992 ft | 446 kts | 89° |
| 2026-05-06 07:07 | -41.36999 | 172.33827 | 28390 ft | 440 kts | 89° |
| 2026-05-06 07:08 | -41.36903 | 172.37878 | 27793 ft | 435 kts | 89° |
| 2026-05-06 07:08 | -41.36807 | 172.41833 | 27210 ft | 430 kts | 89° |
| 2026-05-06 07:08 | -41.36707 | 172.45840 | 26606 ft | 425 kts | 89° |
| 2026-05-06 07:08 | -41.36611 | 172.49746 | 26009 ft | 420 kts | 88° |
| 2026-05-06 07:09 | -41.36517 | 172.53557 | 25433 ft | 415 kts | 88° |
| 2026-05-06 07:09 | -41.36423 | 172.57376 | 24858 ft | 410 kts | 88° |
| 2026-05-06 07:09 | -41.36327 | 172.61150 | 24281 ft | 406 kts | 88° |
| 2026-05-06 07:09 | -41.36233 | 172.64881 | 23701 ft | 401 kts | 88° |
| 2026-05-06 07:10 | -41.36138 | 172.68570 | 23111 ft | 397 kts | 88° |
| 2026-05-06 07:10 | -41.36037 | 172.72223 | 22513 ft | 393 kts | 88° |
| 2026-05-06 07:10 | -41.35938 | 172.75845 | 21918 ft | 389 kts | 87° |
| 2026-05-06 07:10 | -41.35841 | 172.79427 | 21326 ft | 386 kts | 87° |
| 2026-05-06 07:11 | -41.35743 | 172.82977 | 20741 ft | 382 kts | 87° |
| 2026-05-06 07:11 | -41.35645 | 172.86489 | 20153 ft | 378 kts | 87° |
| 2026-05-06 07:11 | -41.35546 | 172.89976 | 19568 ft | 375 kts | 86° |
| 2026-05-06 07:11 | -41.35447 | 172.93421 | 19000 ft | 371 kts | 86° |
| 2026-05-06 07:12 | -41.35349 | 172.96841 | 18426 ft | 368 kts | 86° |
| 2026-05-06 07:12 | -41.35252 | 173.00232 | 17865 ft | 365 kts | 86° |
| 2026-05-06 07:12 | -41.35157 | 173.03594 | 17302 ft | 362 kts | 86° |
| 2026-05-06 07:12 | -41.35060 | 173.06926 | 16737 ft | 359 kts | 86° |
| 2026-05-06 07:13 | -41.34962 | 173.10241 | 16174 ft | 357 kts | 85° |
| 2026-05-06 07:13 | -41.34865 | 173.13533 | 15628 ft | 354 kts | 85° |
| 2026-05-06 07:13 | -41.34764 | 173.16792 | 15075 ft | 352 kts | 85° |
| 2026-05-06 07:13 | -41.34660 | 173.20042 | 14520 ft | 350 kts | 85° |
| 2026-05-06 07:14 | -41.34558 | 173.23266 | 14001 ft | 347 kts | 85° |
| 2026-05-06 07:14 | -41.34458 | 173.26455 | 13474 ft | 344 kts | 85° |
| 2026-05-06 07:14 | -41.34356 | 173.29630 | 12923 ft | 342 kts | 85° |
| 2026-05-06 07:14 | -41.34254 | 173.32783 | 12376 ft | 340 kts | 85° |
| 2026-05-06 07:15 | -41.34151 | 173.35915 | 11847 ft | 337 kts | 85° |
| 2026-05-06 07:15 | -41.34053 | 173.38985 | 11316 ft | 335 kts | 85° |
| 2026-05-06 07:15 | -41.33951 | 173.42076 | 10770 ft | 334 kts | 85° |
| 2026-05-06 07:15 | -41.33849 | 173.45147 | 10266 ft | 330 kts | 85° |
| 2026-05-06 07:16 | -41.33751 | 173.48175 | 9751 ft | 327 kts | 86° |
| 2026-05-06 07:16 | -41.33655 | 173.51186 | 9203 ft | 325 kts | 86° |
| 2026-05-06 07:16 | -41.33554 | 173.54175 | 8745 ft | 320 kts | 86° |
| 2026-05-06 07:16 | -41.33453 | 173.57073 | 8534 ft | 306 kts | 86° |
| 2026-05-06 07:17 | -41.33356 | 173.59833 | 8361 ft | 292 kts | 86° |
| 2026-05-06 07:17 | -41.33266 | 173.62509 | 7967 ft | 288 kts | 86° |
| 2026-05-06 07:17 | -41.33177 | 173.65153 | 7522 ft | 285 kts | 86° |
| 2026-05-06 07:17 | -41.33086 | 173.67769 | 7070 ft | 282 kts | 86° |
| 2026-05-06 07:18 | -41.32993 | 173.70375 | 6617 ft | 280 kts | 86° |
| 2026-05-06 07:18 | -41.32904 | 173.72949 | 6191 ft | 277 kts | 86° |
| 2026-05-06 07:18 | -41.32816 | 173.75501 | 6005 ft | 276 kts | 86° |
| 2026-05-06 07:18 | -41.32723 | 173.78057 | 6009 ft | 277 kts | 86° |
| 2026-05-06 07:19 | -41.32629 | 173.80611 | 6009 ft | 276 kts | 86° |
| 2026-05-06 07:19 | -41.32537 | 173.83127 | 5987 ft | 276 kts | 86° |
| 2026-05-06 07:19 | -41.32444 | 173.85705 | 5981 ft | 276 kts | 86° |
| 2026-05-06 07:19 | -41.32351 | 173.88255 | 5984 ft | 275 kts | 86° |
| 2026-05-06 07:20 | -41.32257 | 173.90774 | 6008 ft | 276 kts | 86° |
| 2026-05-06 07:20 | -41.32164 | 173.93324 | 6012 ft | 276 kts | 86° |
| 2026-05-06 07:20 | -41.32216 | 173.95877 | 5883 ft | 276 kts | 100° |
| 2026-05-06 07:20 | -41.32758 | 173.98324 | 5888 ft | 276 kts | 110° |
| 2026-05-06 07:21 | -41.33461 | 174.00702 | 5943 ft | 277 kts | 112° |
| 2026-05-06 07:21 | -41.34170 | 174.03101 | 5970 ft | 279 kts | 110° |
| 2026-05-06 07:21 | -41.34827 | 174.05530 | 5985 ft | 279 kts | 109° |
| 2026-05-06 07:21 | -41.35452 | 174.07972 | 6000 ft | 279 kts | 109° |
| 2026-05-06 07:22 | -41.36091 | 174.10411 | 6004 ft | 279 kts | 109° |
| 2026-05-06 07:22 | -41.36743 | 174.12845 | 6005 ft | 279 kts | 110° |
| 2026-05-06 07:22 | -41.37403 | 174.15278 | 5908 ft | 279 kts | 109° |
| 2026-05-06 07:22 | -41.38050 | 174.17708 | 5784 ft | 278 kts | 109° |
| 2026-05-06 07:23 | -41.38691 | 174.20132 | 5654 ft | 278 kts | 109° |
| 2026-05-06 07:23 | -41.39330 | 174.22556 | 5529 ft | 277 kts | 109° |
| 2026-05-06 07:23 | -41.39970 | 174.24974 | 5407 ft | 277 kts | 108° |
| 2026-05-06 07:23 | -41.40614 | 174.27408 | 5262 ft | 281 kts | 109° |
| 2026-05-06 07:24 | -41.41268 | 174.29870 | 5003 ft | 280 kts | 109° |
| 2026-05-06 07:24 | -41.41910 | 174.32293 | 4705 ft | 277 kts | 108° |
| 2026-05-06 07:24 | -41.42543 | 174.34681 | 4616 ft | 273 kts | 109° |
| 2026-05-06 07:24 | -41.43174 | 174.37074 | 4538 ft | 274 kts | 109° |
| 2026-05-06 07:25 | -41.43797 | 174.39445 | 4285 ft | 268 kts | 109° |
| 2026-05-06 07:25 | -41.44423 | 174.41818 | 3592 ft | 277 kts | 108° |
| 2026-05-06 07:25 | -41.45059 | 174.44233 | 3070 ft | 278 kts | 108° |
| 2026-05-06 07:25 | -41.45677 | 174.46601 | 3007 ft | 266 kts | 108° |
| 2026-05-06 07:26 | -41.46290 | 174.48931 | 2950 ft | 261 kts | 108° |
| 2026-05-06 07:26 | -41.46868 | 174.51126 | 2904 ft | 245 kts | 107° |
| 2026-05-06 07:26 | -41.47427 | 174.53260 | 2976 ft | 243 kts | 108° |
| 2026-05-06 07:26 | -41.47982 | 174.55381 | 3035 ft | 243 kts | 108° |
| 2026-05-06 07:27 | -41.48536 | 174.57506 | 3126 ft | 244 kts | 108° |
| 2026-05-06 07:27 | -41.49047 | 174.59660 | 3077 ft | 241 kts | 99° |
| 2026-05-06 07:27 | -41.49285 | 174.61881 | 3016 ft | 241 kts | 94° |
| 2026-05-06 07:27 | -41.49482 | 174.64098 | 2943 ft | 241 kts | 94° |
| 2026-05-06 07:28 | -41.49675 | 174.66320 | 2939 ft | 240 kts | 94° |
| 2026-05-06 07:28 | -41.49867 | 174.68544 | 3012 ft | 241 kts | 94° |
| 2026-05-06 07:28 | -41.50263 | 174.72991 | 2918 ft | 234 kts | 95° |
| 2026-05-06 07:29 | -41.50430 | 174.75052 | 2965 ft | 213 kts | 88° |
| 2026-05-06 07:29 | -41.50114 | 174.76864 | 2919 ft | 194 kts | 55° |
| 2026-05-06 07:29 | -41.49343 | 174.78233 | 2947 ft | 185 kts | 38° |
| 2026-05-06 07:29 | -41.48255 | 174.78984 | 2909 ft | 175 kts | 5° |
| 2026-05-06 07:30 | -41.47115 | 174.78862 | 2910 ft | 157 kts | 338° |
| 2026-05-06 07:30 | -41.46188 | 174.78182 | 2861 ft | 149 kts | 326° |
| 2026-05-06 07:30 | -41.45262 | 174.77551 | 2686 ft | 149 kts | 343° |
| 2026-05-06 07:30 | -41.44231 | 174.77590 | 2447 ft | 151 kts | 11° |
| 2026-05-06 07:31 | -41.43239 | 174.78026 | 2181 ft | 148 kts | 14° |
| 2026-05-06 07:31 | -41.42274 | 174.78437 | 1881 ft | 145 kts | 12° |
| 2026-05-06 07:31 | -41.41622 | 174.78690 | 1733 ft | 144 kts | 12° |
| 2026-05-06 07:31 | -41.40660 | 174.79055 | 1668 ft | 144 kts | 12° |
| 2026-05-06 07:32 | -41.39708 | 174.79418 | 1666 ft | 144 kts | 12° |
| 2026-05-06 07:32 | -41.38744 | 174.79785 | 1665 ft | 144 kts | 12° |
| 2026-05-06 07:32 | -41.37778 | 174.80153 | 1644 ft | 145 kts | 12° |
| 2026-05-06 07:32 | -41.36815 | 174.80511 | 1351 ft | 142 kts | 10° |
| 2026-05-06 07:33 | -41.35848 | 174.80590 | 986 ft | 137 kts | 354° |
| 2026-05-06 07:33 | -41.34910 | 174.80523 | 648 ft | 134 kts | 2° |
| 2026-05-06 07:33 | -41.33995 | 174.80591 | 299 ft | 130 kts | 3° |
| 2026-05-06 07:33 | -41.33112 | 174.80680 | 57 ft | 118 kts | 354° |
| 2026-05-06 07:34 | -41.32360 | 174.80713 | 115 ft | 113 kts | 5° |
| 2026-05-06 07:34 | -41.31503 | 174.80873 | 770 ft | 134 kts | 7° |
| 2026-05-06 07:34 | -41.30587 | 174.81259 | 1407 ft | 147 kts | 23° |
| 2026-05-06 07:34 | -41.29605 | 174.81922 | 1776 ft | 171 kts | 22° |